This demonstration page uses our WeatherBlox Daily Observations layout. Learn more.

39.29038, -76.61219

Hourly Observations for October 25, 2019

Temp ( °F °C ) Dew Point ( °F °C ) Humidity (%) Winds ( mph kmh ) Pressure ( in mb ) Visibility ( mi km ) Precip ( " mm )
12:54 am 00:54 undefined 54 12.2 49 9.4 83 83 undefined N/A 30.3 1026 N/A 0 0
1:54 am 01:54 undefined 54 12.2 49 9.4 83 83 undefined N/A 30.29 1026 N/A 0 0
2:54 am 02:54 undefined 52 11.1 49 9.4 89 89 undefined N/A 30.29 1026 N/A 0 0
3:54 am 03:54 undefined 52 11.1 49 9.4 89 89 undefined N/A 30.27 1025 N/A 0 0
4:54 am 04:54 undefined 53 11.7 49 9.4 86 86 undefined N/A 30.29 1026 N/A 0 0
5:54 am 05:54 undefined 52 11.1 49 9.4 89 89 undefined N/A 30.29 1026 N/A 0 0
6:54 am 06:54 undefined 52 11.1 49 9.4 89 89 undefined N/A 30.3 1026 N/A 0 0
7:54 am 07:54 undefined 53 11.7 50 10 89 89 undefined N/A 30.3 1026 N/A 0 0
8:54 am 08:54 undefined 55 12.8 51 10.6 87 87 undefined N/A 30.32 1027 N/A 0 0
9:54 am 09:54 undefined 58 14.4 52 11.1 81 81 undefined N/A 30.34 1027 N/A 0 0
10:54 am 10:54 undefined 61 16.1 55 12.8 81 81 undefined N/A 30.33 1027 N/A 0 0
11:54 am 11:54 undefined 63 17.2 54 12.2 73 73 undefined N/A 30.3 1026 N/A 0 0
12:54 pm 12:54 undefined 64 17.8 53 11.7 68 68 undefined N/A 30.27 1025 N/A 0 0
1:54 pm 13:54 undefined 65 18.3 54 12.2 68 68 undefined N/A 30.23 1024 N/A 0 0
2:54 pm 14:54 undefined 66 18.9 54 12.2 65 65 undefined N/A 30.23 1024 N/A 0 0
3:54 pm 15:54 undefined 65 18.3 53 11.7 66 66 undefined N/A 30.18 1022 N/A 0 0
4:54 pm 16:54 undefined 65 18.3 54 12.2 68 68 undefined N/A 30.18 1022 N/A 0 0
5:54 pm 17:54 undefined 63 17.2 53 11.7 70 70 undefined N/A 30.17 1022 N/A 0 0
6:54 pm 18:54 undefined 63 17.2 54 12.2 73 73 undefined N/A 30.19 1022 N/A 0 0
7:54 pm 19:54 undefined 63 17.2 54 12.2 73 73 undefined N/A 30.19 1023 N/A 0 0
8:54 pm 20:54 undefined 63 17.2 52 11.1 68 68 undefined N/A 30.2 1023 N/A 0 0
9:54 pm 21:54 undefined 62 16.7 50 10 65 65 undefined N/A 30.22 1023 N/A 0 0
10:54 pm 22:54 undefined 63 17.2 48 8.9 58 58 undefined N/A 30.22 1023 N/A 0 0
11:54 pm 23:54 undefined 61 16.1 48 8.9 63 63 undefined N/A 30.19 1023 N/A 0 0

Powered by AerisWeather